Nearby METAR Reports

KLNK - Lincoln, Nebraska, USA
Distance from station: WNW 8mi, 13km
Updated: Thu, 18-Oct-2018 5:54am CDT
Clear
Clear
 Wind from SSE
Wind: SSE 6 mph , 9 km/h
Temperature: 39°F , 4°C
Wind Chill: 35°F , 2°C
Dew Point: 37°F , 3°C
Humidity: 93%
Barometer: 30.44 inHg , 1030.8 hPa
Clouds: Clear
Visibility: 10 miles , 16 km
2018/10/18 10:54 KLNK 181054Z 16005KT 10SM R36/5500VP6000FT CLR 04/03 A3044 RMK AO2 SLP310 T00390028
KAHQ - Wahoo, Nebraska, USA
Distance from station: N 31mi, 49km
Updated: Thu, 18-Oct-2018 6:15am CDT
Clear
Clear
 Wind from calm
Wind: Calm
Temperature: 39°F , 4°C
Dew Point: 37°F , 3°C
Humidity: 93%
Barometer: 30.42 inHg , 1030.1 hPa
Clouds: Clear
Visibility: 10 miles , 16 km
2018/10/18 11:15 KAHQ 181115Z AUTO 00000KT 10SM CLR 04/03 A3042 RMK AO2 T00350032
 
KBIE - Beatrice Municip, Nebraska, USA
Distance from station: S 36mi, 57km
Updated: Thu, 18-Oct-2018 6:15am CDT
Clear
Clear
 Wind from calm
Wind: Calm
Temperature: 41°F , 5°C
Dew Point: 39°F , 4°C
Humidity: 93%
Barometer: 30.45 inHg , 1031.2 hPa
Clouds: Clear
Visibility: 7 miles , 11 km
2018/10/18 11:15 KBIE 181115Z AUTO 00000KT 7SM CLR 05/04 A3045 RMK AO2 T00520042
KMLE - Omaha/Millard, Nebraska, USA
Distance from station: NE 39mi, 63km
Updated: Thu, 18-Oct-2018 6:15am CDT
Clear
Clear
 Wind from calm
Wind: Calm
Temperature: 39°F , 4°C
Dew Point: 39°F , 4°C
Humidity: 100%
Barometer: 30.44 inHg , 1030.8 hPa
Clouds: Clear
Visibility: 10 miles , 16 km
2018/10/18 11:15 KMLE 181115Z AUTO 00000KT 10SM CLR 04/04 A3044 RMK AO2 T00430037
 
KPMV - Plattsmouth Muni, Nebraska, USA
Distance from station: ENE 39mi, 63km
Updated: Thu, 18-Oct-2018 6:15am CDT
Clear
Clear
 Wind from SSE
Wind: SSE 7 mph , 11 km/h
Temperature: 45°F , 7°C
Wind Chill: 41°F , 5°C
Dew Point: 41°F , 5°C
Humidity: 87%
Barometer: 30.44 inHg , 1030.8 hPa
Clouds: Clear
Visibility: 10 miles , 16 km
2018/10/18 11:15 KPMV 181115Z AUTO 16006KT 10SM CLR 07/05 A3044 RMK AO2 T00650050
KAFK - Nebraska City, Nebraska, USA
Distance from station: ESE 43mi, 69km
Updated: Thu, 18-Oct-2018 6:15am CDT
Clear
Clear
 Wind from S
Wind: S 7 mph , 11 km/h
Temperature: 41°F , 5°C
Wind Chill: 36°F , 2°C
Dew Point: 37°F , 3°C
Humidity: 87%
Barometer: 30.45 inHg , 1031.2 hPa
Clouds: Clear
Visibility: 10 miles , 16 km
2018/10/18 11:15 KAFK 181115Z AUTO 18006KT 10SM CLR 05/03 A3045 RMK AO2 T00480028
 
KOFF - Offutt Afb/Belle, Nebraska, USA
Distance from station: ENE 44mi, 70km
Updated: Thu, 18-Oct-2018 5:56am CDT
Clear
Clear
 Wind from calm
Wind: Calm
Temperature: 39°F , 4°C
Dew Point: 39°F , 4°C
Humidity: 100%
Barometer: 30.43 inHg , 1030.5 hPa
Clouds: Clear
Visibility: 10 miles , 16 km
2018/10/18 10:56 KOFF 181056Z AUTO 00000KT 10SM CLR 04/04 A3043 RMK AO2 SLP312 T00390039 $
KFET - Fremont Muni Arp, Nebraska, USA
Distance from station: N 46mi, 74km
Updated: Thu, 18-Oct-2018 6:15am CDT
Clear
Clear
 Wind from calm
Wind: Calm
Temperature: 43°F , 6°C
Dew Point: 41°F , 5°C
Humidity: 93%
Barometer: 30.42 inHg , 1030.1 hPa
Clouds: Clear
Visibility: 10 miles , 16 km
2018/10/18 11:15 KFET 181115Z AUTO 00000KT 10SM CLR 06/05 A3042 RMK AO2 T00550045
 
KBTA - Blair Muni, Nebraska, USA
Distance from station: NNE 51mi, 82km
Updated: Thu, 18-Oct-2018 6:15am CDT
Clear
Clear
 Wind from S
Wind: S 5 mph , 7 km/h
Temperature: 43°F , 6°C
Wind Chill: 40°F , 4°C
Dew Point: 39°F , 4°C
Humidity: 87%
Barometer: 30.42 inHg , 1030.1 hPa
Clouds: Clear
Visibility: 10 miles , 16 km
2018/10/18 11:15 KBTA 181115Z AUTO 17004KT 10SM CLR 06/04 A3042 RMK AO2 T00580039
KJYR - York, Nebraska, USA
Distance from station: W 52mi, 84km
Updated: Thu, 18-Oct-2018 6:15am CDT
Clear
Clear
 Wind from SW
Wind: SW 7 mph , 11 km/h
Temperature: 41°F , 5°C
Wind Chill: 36°F , 2°C
Dew Point: 37°F , 3°C
Humidity: 87%
Barometer: 30.42 inHg , 1030.1 hPa
Clouds: Clear
Visibility: 10 miles , 16 km
2018/10/18 11:15 KJYR 181115Z AUTO 22006KT 10SM CLR 05/03 A3042 RMK AO2
 
KOMA - Omaha/Eppley, Nebraska, USA
Distance from station: NE 53mi, 85km
Updated: Thu, 18-Oct-2018 5:52am CDT
Clear
Clear
 Wind from SSE
Wind: SSE 8 mph , 13 km/h
Temperature: 45°F , 7°C
Wind Chill: 41°F , 5°C
Dew Point: 37°F , 3°C
Humidity: 76%
Barometer: 30.44 inHg , 1030.8 hPa
Clouds: Clear
Visibility: 10 miles , 16 km
2018/10/18 10:52 KOMA 181052Z 16007KT 10SM CLR 07/03 A3044 RMK AO2 SLP308 T00670033
KOLU - Columbus Muni, Nebraska, USA
Distance from station: NW 58mi, 93km
Updated: Thu, 18-Oct-2018 6:33am CDT
Mist, Clear
Mist, Clear
 
Temperature: 32°F , 0°C
Dew Point: 30°F , -1°C
Humidity: 93%
Barometer: 30.42 inHg , 1030.1 hPa
Summary: Mist
Clouds: Clear
Visibility: 1 1/2 miles , 2.4 km
2018/10/18 11:33 KOLU 181133Z AUTO 1 1/2SM BR CLR 00/M01 A3042 RMK AO2 FZRANO $